• Join FlightAware (Why Join?)
  • Login
  • US Flag GB Flag 
21:42 EST


 

Airport Tracker/Info


-or-


 

Live Flight TrackerFlight Track Log ✈ ASQ5678 ✈ 01-Jul-2013 ✈ KEWR - KCVG

Flight Track Log - Related Links

Times and Time Zones

All times are in EDT time to prevent confusion due to time zone crossing. See the ASQ5678 flight status page for this flight to view local times or setup timezone preferences in your user account.

Time Position Orientation Groundspeed Altitude Reporting Facility
EDT Latitude Longitude Course Direction KTS MPH feet Rate Location/Type
19:43 40.6833 -74.1833 270° West 154 177 400  Level New York TRACON
19:44 40.6333 -74.2000 194° South 187 215 2,200 1,952 Climbing New York TRACON
19:45 40.6333 -74.3000 270° West 242 278 4,500 2,300 Climbing New York TRACON
19:46 40.6834 -74.6558 270° West  Level FlightAware Approximate
19:46 40.6333 -74.3667 270° West 227 261 6,800  Level New York TRACON
19:47 40.6834 -74.7780 270° West  Level FlightAware Approximate
19:47 40.6167 -74.4500 255° West 251 289 8,500  Level New York TRACON
19:48 40.6834 -74.9003 270° West  Level FlightAware Approximate
19:49 40.6281 -74.6786 274° West 307 353 10,900  Level New York Center
19:50 40.6450 -74.7997 280° West 332 382 12,100 1,388 Climbing New York Center
19:51 40.6617 -74.9211 280° West 338 389 13,700 1,385 Climbing New York Center
19:52 40.6764 -75.0314 280° West 338 389 14,800 1,008 Climbing New York Center
19:53 40.6536 -75.1450 255° West 326 375 15,700 934 Climbing New York Center
19:54 40.5969 -75.2617 237° Southwest 332 382 16,700 992 Climbing New York Center
19:55 40.5514 -75.3678 241° Southwest 346 398 17,700 958 Climbing New York Center
19:56 40.5011 -75.4764 239° Southwest 346 398 18,600 857 Climbing New York Center
19:57 40.4575 -75.5772 240° Southwest 346 398 19,400 843 Climbing New York Center
19:58 40.4050 -75.6853 237° Southwest 346 398 20,300 942 Climbing New York Center
19:59 40.3567 -75.7961 240° Southwest 346 398 21,300 1,008 Climbing New York Center
20:00 40.2953 -75.9169 236° Southwest 351 404 22,300 1,017 Climbing New York Center
20:01 40.2444 -76.0300 240° Southwest 356 410 23,300 1,000 Climbing New York Center
20:02 40.1917 -76.1375 237° Southwest 356 410 24,300 893 Climbing New York Center
20:03 40.1472 -76.2372 240° Southwest 356 410 25,100 893 Climbing New York Center
20:04 40.0919 -76.3525 238° Southwest 361 415 26,100 950 Climbing New York Center
20:05 40.0428 -76.4625 240° Southwest 361 415 27,000 958 Climbing New York Center
20:06 39.9961 -76.5669 240° Southwest 361 415 28,000 958 Climbing New York Center
20:07 39.9450 -76.6739 238° Southwest 355 409 28,900 893 Climbing New York Center
20:08 39.8958 -76.7778 238° Southwest 340 391 29,800 942 Climbing New York Center
20:09 39.8467 -76.8819 238° Southwest 340 391 30,800 1,010 Climbing New York Center
20:09 39.8081 -76.9583 237° Southwest 342 394 31,500 1,010 Climbing Washington Center
20:10 39.7589 -77.0625 238° Southwest 335 386 32,500 1,068 Climbing Washington Center
20:11 39.7139 -77.1642 240° Southwest 335 386 33,600 1,050 Climbing Washington Center
20:12 39.6644 -77.2656 238° Southwest 335 386 34,600 992 Climbing Washington Center
20:13 39.6194 -77.3614 239° Southwest 335 386 35,600 706 Climbing Washington Center
20:14 39.5719 -77.4625 239° Southwest 335 386 36,000 198 Climbing Washington Center
20:15 39.5225 -77.5636 238° Southwest 335 386 36,000  Level Washington Center
20:16 39.4686 -77.6750 238° Southwest 355 409 36,000  Level Washington Center
20:17 39.4144 -77.7889 238° Southwest 365 420 36,000  Level Washington Center
20:18 39.3622 -77.9081 240° Southwest 370 426 36,000  Level Washington Center
20:19 39.3161 -78.0275 244° Southwest 375 432 36,000  Level Washington Center
20:20 39.2722 -78.1386 243° Southwest 370 426 36,000  Level Washington Center
20:21 39.2236 -78.2547 242° Southwest 363 418 36,000  Level Washington Center
20:22 39.1772 -78.3708 243° Southwest 363 418 36,000  Level Washington Center
20:23 39.1308 -78.4869 243° Southwest 363 418 36,000  Level Washington Center
20:24 39.0864 -78.6028 244° Southwest 363 418 36,000  Level Washington Center
20:25 39.0850 -78.7364 269° West 359 413 36,000  Level Washington Center
20:26 39.0897 -78.8703 273° West 370 426 36,000  Level Washington Center
20:27 39.0942 -79.0122 272° West 386 444 36,000  Level Washington Center
20:28 39.0983 -79.1517 272° West 391 450 36,000  Level Washington Center
20:29 39.1050 -79.2750 274° West 397 457 36,000  Level Washington Center
20:30 39.1069 -79.4142 271° West 397 457 36,000  Level Washington Center
20:31 39.1089 -79.5453 271° West 385 443 36,000  Level Washington Center
20:32 39.1128 -79.6847 272° West 385 443 36,000  Level Washington Center
20:33 39.1158 -79.8375 272° West 385 443 36,000  Level Washington Center
20:34 39.1142 -79.9339 269° West 397 457 36,000  Level Indianapolis Center
20:35 39.1164 -80.0844 271° West 394 453 36,000  Level Indianapolis Center
20:36 39.1450 -80.2292 284° West 426 490 36,000  Level Indianapolis Center
20:37 39.1836 -80.3708 289° West 421 484 36,000  Level Indianapolis Center
20:38 39.2236 -80.5136 290° West 424 488 36,000  Level Indianapolis Center
20:39 39.2694 -80.6469 294° West 405 466 36,000  Level Indianapolis Center
20:40 39.3344 -80.7636 306° West 402 463 36,000  Level Indianapolis Center
20:41 39.3922 -80.8914 300° West 411 473 36,000  Level Indianapolis Center
20:42 39.4533 -81.0222 301° West 425 489 36,000  Level Indianapolis Center
20:43 39.5272 -81.1844 301° West 436 502 36,000  Level Indianapolis Center
20:44 39.5864 -81.3169 300° West 428 493 36,000 -344 Level Indianapolis Center
20:45 39.6267 -81.4569 291° West 419 482 35,300 -488 Descending Indianapolis Center
20:46 39.6558 -81.5964 285° West 404 465 35,000 -293 Descending Indianapolis Center
20:47 39.6864 -81.7333 286° West 400 460 34,700 -689 Descending Indianapolis Center
20:48 39.7333 -81.8781 293° West 408 470 33,600 -1,268 Descending Indianapolis Center
20:50 39.8022 -82.0053 305° West 423 487 32,100 -1,463 Descending Indianapolis Center
20:51 39.8628 -82.1431 300° West 435 501 30,600 -1,463 Descending Indianapolis Center
20:52 39.9178 -82.2819 297° West 430 495 29,100 -1,463 Descending Indianapolis Center
20:53 39.9525 -82.4217 288° West 403 464 27,600 -1,475 Descending Indianapolis Center
20:54 39.9644 -82.5703 276° West 412 474 26,100 -1,475 Descending Indianapolis Center
20:55 39.9658 -82.7289 271° West 434 499 24,600 -1,463 Descending Indianapolis Center
20:56 39.9661 -82.8900 270° West 441 507 23,100 -1,463 Descending Indianapolis Center
20:57 39.9550 -83.0506 265° West 441 507 21,600 -1,475 Descending Indianapolis Center
20:58 39.9014 -83.1872 243° Southwest 419 482 20,100 -1,475 Descending Indianapolis Center
20:59 39.8450 -83.3189 241° Southwest 413 475 18,600 -1,463 Descending Indianapolis Center
21:00 39.7900 -83.4450 240° Southwest 387 445 17,100 -1,512 Descending Indianapolis Center
21:01 39.7400 -83.5642 241° Southwest 364 419 15,500 -1,525 Descending Indianapolis Center
21:02 39.6939 -83.6736 241° Southwest 345 397 14,000 -1,475 Descending Indianapolis Center
21:03 39.6467 -83.7831 241° Southwest 343 395 12,500 -1,426 Descending Indianapolis Center
21:04 39.5997 -83.8928 241° Southwest 345 397 11,100 -738 Descending Indianapolis Center
21:05 39.5364 -83.9886 229° Southwest 349 402 11,000 -49 Descending Indianapolis Center
21:06 39.4700 -84.0817 227° Southwest 349 402 11,000  Level Indianapolis Center
21:07 39.3900 -84.1928 227° Southwest 357 411 11,000  Level Indianapolis Center
21:08 39.3419 -84.3083 242° Southwest 361 415 11,000  Level Indianapolis Center
21:09 39.2914 -84.4244 241° Southwest 367 422 11,000 -246 Level Indianapolis Center
21:10 39.2481 -84.5422 245° Southwest 364 419 10,500 -927 Descending Indianapolis Center
21:11 39.2178 -84.6386 248° West 291 335 9,100 -1,512 Descending Indianapolis Center
21:12 39.1903 -84.7256 248° West 262 302 7,400 -2,066 Descending Indianapolis Center
21:13 39.1781 -84.8119 260° West 250 288 4,900 -1,820 Descending Indianapolis Center
21:14 39.1394 -84.8911 238° Southwest 262 302 3,700 -929 Descending Indianapolis Center
21:16 39.0500 -84.8667 168° South 211 243 2,500 -766 Descending Cincinnati TRACON